sensor_id;sensor_type;location;lat;lon;timestamp;P1;durP1;ratioP1;P2;durP2;ratioP2
67640;SDS011;54434;50.096;20.082;2023-04-16T00:00:32;20.20;;;11.40;;
67640;SDS011;54434;50.096;20.082;2023-04-16T00:03:28;21.40;;;10.50;;
67640;SDS011;54434;50.096;20.082;2023-04-16T00:06:09;22.00;;;12.30;;
67640;SDS011;54434;50.096;20.082;2023-04-16T00:08:46;22.00;;;12.50;;
67640;SDS011;54434;50.096;20.082;2023-04-16T00:11:23;23.80;;;12.60;;
67640;SDS011;54434;50.096;20.082;2023-04-16T00:14:00;21.70;;;11.20;;
67640;SDS011;54434;50.096;20.082;2023-04-16T00:16:37;21.10;;;11.40;;
67640;SDS011;54434;50.096;20.082;2023-04-16T00:19:13;21.00;;;11.40;;
67640;SDS011;54434;50.096;20.082;2023-04-16T00:21:50;22.00;;;12.00;;
67640;SDS011;54434;50.096;20.082;2023-04-16T00:24:26;24.40;;;12.20;;
67640;SDS011;54434;50.096;20.082;2023-04-16T00:27:02;20.60;;;12.80;;
67640;SDS011;54434;50.096;20.082;2023-04-16T00:29:40;23.30;;;12.90;;
67640;SDS011;54434;50.096;20.082;2023-04-16T00:32:16;22.00;;;12.90;;
67640;SDS011;54434;50.096;20.082;2023-04-16T00:34:53;21.30;;;11.30;;
67640;SDS011;54434;50.096;20.082;2023-04-16T00:37:29;22.00;;;12.30;;
67640;SDS011;54434;50.096;20.082;2023-04-16T00:40:07;22.50;;;12.40;;
67640;SDS011;54434;50.096;20.082;2023-04-16T00:42:44;23.40;;;13.20;;
67640;SDS011;54434;50.096;20.082;2023-04-16T00:45:21;26.80;;;13.30;;
67640;SDS011;54434;50.096;20.082;2023-04-16T00:47:58;23.00;;;12.40;;
67640;SDS011;54434;50.096;20.082;2023-04-16T00:50:36;19.80;;;11.60;;
67640;SDS011;54434;50.096;20.082;2023-04-16T00:53:13;23.10;;;12.30;;
67640;SDS011;54434;50.096;20.082;2023-04-16T00:55:50;23.00;;;12.10;;
67640;SDS011;54434;50.096;20.082;2023-04-16T00:58:30;23.30;;;12.90;;
67640;SDS011;54434;50.096;20.082;2023-04-16T01:01:07;23.30;;;13.30;;
67640;SDS011;54434;50.096;20.082;2023-04-16T01:03:47;24.60;;;13.10;;
67640;SDS011;54434;50.096;20.082;2023-04-16T01:06:24;26.60;;;13.70;;
67640;SDS011;54434;50.096;20.082;2023-04-16T01:09:00;26.30;;;13.90;;
67640;SDS011;54434;50.096;20.082;2023-04-16T01:11:38;24.20;;;13.70;;
67640;SDS011;54434;50.096;20.082;2023-04-16T01:14:15;25.30;;;12.90;;
67640;SDS011;54434;50.096;20.082;2023-04-16T01:16:51;22.20;;;13.30;;
67640;SDS011;54434;50.096;20.082;2023-04-16T01:19:31;26.10;;;13.40;;
67640;SDS011;54434;50.096;20.082;2023-04-16T01:22:08;23.30;;;13.10;;
67640;SDS011;54434;50.096;20.082;2023-04-16T01:24:45;22.10;;;13.10;;
67640;SDS011;54434;50.096;20.082;2023-04-16T01:27:21;28.10;;;14.50;;
67640;SDS011;54434;50.096;20.082;2023-04-16T01:29:57;24.70;;;14.30;;
67640;SDS011;54434;50.096;20.082;2023-04-16T01:32:43;23.20;;;13.50;;
67640;SDS011;54434;50.096;20.082;2023-04-16T01:35:20;25.40;;;14.20;;
67640;SDS011;54434;50.096;20.082;2023-04-16T01:37:56;26.70;;;13.90;;
67640;SDS011;54434;50.096;20.082;2023-04-16T01:40:33;26.10;;;14.70;;
67640;SDS011;54434;50.096;20.082;2023-04-16T01:43:13;25.70;;;14.70;;
67640;SDS011;54434;50.096;20.082;2023-04-16T01:45:49;26.20;;;14.80;;
67640;SDS011;54434;50.096;20.082;2023-04-16T01:48:30;25.70;;;15.10;;
67640;SDS011;54434;50.096;20.082;2023-04-16T01:51:07;30.50;;;16.40;;
67640;SDS011;54434;50.096;20.082;2023-04-16T01:53:45;29.50;;;16.70;;
67640;SDS011;54434;50.096;20.082;2023-04-16T01:56:23;30.00;;;17.20;;
67640;SDS011;54434;50.096;20.082;2023-04-16T01:58:59;30.60;;;16.80;;
67640;SDS011;54434;50.096;20.082;2023-04-16T02:01:40;30.90;;;16.90;;
67640;SDS011;54434;50.096;20.082;2023-04-16T02:04:17;32.50;;;18.40;;
67640;SDS011;54434;50.096;20.082;2023-04-16T02:06:54;28.30;;;16.30;;
67640;SDS011;54434;50.096;20.082;2023-04-16T02:09:30;29.40;;;16.20;;
67640;SDS011;54434;50.096;20.082;2023-04-16T02:12:10;28.60;;;16.30;;
67640;SDS011;54434;50.096;20.082;2023-04-16T02:14:51;27.00;;;16.00;;
67640;SDS011;54434;50.096;20.082;2023-04-16T02:17:30;28.70;;;16.80;;
67640;SDS011;54434;50.096;20.082;2023-04-16T02:20:15;28.80;;;16.90;;
67640;SDS011;54434;50.096;20.082;2023-04-16T02:23:01;27.40;;;16.40;;
67640;SDS011;54434;50.096;20.082;2023-04-16T02:25:42;29.70;;;16.30;;
67640;SDS011;54434;50.096;20.082;2023-04-16T02:28:20;33.10;;;16.60;;
67640;SDS011;54434;50.096;20.082;2023-04-16T02:30:57;26.70;;;16.00;;
67640;SDS011;54434;50.096;20.082;2023-04-16T02:33:34;31.40;;;17.50;;
67640;SDS011;54434;50.096;20.082;2023-04-16T02:36:11;28.10;;;16.90;;
67640;SDS011;54434;50.096;20.082;2023-04-16T02:38:47;30.70;;;16.30;;
67640;SDS011;54434;50.096;20.082;2023-04-16T02:41:24;27.10;;;15.70;;
67640;SDS011;54434;50.096;20.082;2023-04-16T02:44:03;30.80;;;16.60;;
67640;SDS011;54434;50.096;20.082;2023-04-16T02:46:39;32.80;;;17.60;;
67640;SDS011;54434;50.096;20.082;2023-04-16T02:49:17;31.10;;;17.10;;
67640;SDS011;54434;50.096;20.082;2023-04-16T02:51:53;29.20;;;16.70;;
67640;SDS011;54434;50.096;20.082;2023-04-16T02:54:30;32.20;;;18.20;;
67640;SDS011;54434;50.096;20.082;2023-04-16T02:57:07;30.60;;;17.80;;
67640;SDS011;54434;50.096;20.082;2023-04-16T02:59:43;29.80;;;17.80;;
67640;SDS011;54434;50.096;20.082;2023-04-16T03:02:23;31.40;;;17.50;;
67640;SDS011;54434;50.096;20.082;2023-04-16T03:05:00;31.50;;;17.60;;
67640;SDS011;54434;50.096;20.082;2023-04-16T03:07:36;35.60;;;19.10;;
67640;SDS011;54434;50.096;20.082;2023-04-16T03:10:13;32.00;;;18.00;;
67640;SDS011;54434;50.096;20.082;2023-04-16T03:12:50;31.40;;;18.10;;
67640;SDS011;54434;50.096;20.082;2023-04-16T03:15:26;30.50;;;17.80;;
67640;SDS011;54434;50.096;20.082;2023-04-16T03:18:03;32.00;;;17.60;;
67640;SDS011;54434;50.096;20.082;2023-04-16T03:20:39;34.50;;;18.00;;
67640;SDS011;54434;50.096;20.082;2023-04-16T03:23:17;32.00;;;17.80;;
67640;SDS011;54434;50.096;20.082;2023-04-16T03:25:53;32.50;;;17.20;;
67640;SDS011;54434;50.096;20.082;2023-04-16T03:28:30;31.20;;;18.30;;
67640;SDS011;54434;50.096;20.082;2023-04-16T03:31:06;31.00;;;17.50;;
67640;SDS011;54434;50.096;20.082;2023-04-16T03:33:44;30.80;;;17.50;;
67640;SDS011;54434;50.096;20.082;2023-04-16T03:36:20;31.40;;;17.80;;
67640;SDS011;54434;50.096;20.082;2023-04-16T03:38:57;32.50;;;19.00;;
67640;SDS011;54434;50.096;20.082;2023-04-16T03:41:34;33.60;;;19.40;;
67640;SDS011;54434;50.096;20.082;2023-04-16T03:44:11;35.30;;;19.80;;
67640;SDS011;54434;50.096;20.082;2023-04-16T03:46:48;34.30;;;18.90;;
67640;SDS011;54434;50.096;20.082;2023-04-16T03:49:24;33.50;;;19.50;;
67640;SDS011;54434;50.096;20.082;2023-04-16T03:52:02;36.00;;;19.00;;
67640;SDS011;54434;50.096;20.082;2023-04-16T03:54:38;31.30;;;18.30;;
67640;SDS011;54434;50.096;20.082;2023-04-16T03:57:26;29.60;;;18.00;;
67640;SDS011;54434;50.096;20.082;2023-04-16T04:00:10;33.20;;;17.90;;
67640;SDS011;54434;50.096;20.082;2023-04-16T04:02:46;31.20;;;17.90;;
67640;SDS011;54434;50.096;20.082;2023-04-16T04:05:24;29.00;;;17.70;;
67640;SDS011;54434;50.096;20.082;2023-04-16T04:08:00;30.50;;;18.30;;
67640;SDS011;54434;50.096;20.082;2023-04-16T04:10:38;31.80;;;18.40;;
67640;SDS011;54434;50.096;20.082;2023-04-16T04:13:16;31.60;;;17.90;;
67640;SDS011;54434;50.096;20.082;2023-04-16T04:15:53;32.40;;;18.20;;
67640;SDS011;54434;50.096;20.082;2023-04-16T04:18:32;34.00;;;19.30;;
67640;SDS011;54434;50.096;20.082;2023-04-16T04:21:10;31.20;;;19.60;;
67640;SDS011;54434;50.096;20.082;2023-04-16T04:23:46;32.20;;;19.50;;
67640;SDS011;54434;50.096;20.082;2023-04-16T04:26:22;32.90;;;19.20;;
67640;SDS011;54434;50.096;20.082;2023-04-16T04:28:59;33.70;;;19.20;;
67640;SDS011;54434;50.096;20.082;2023-04-16T04:31:35;33.70;;;20.00;;
67640;SDS011;54434;50.096;20.082;2023-04-16T04:34:13;35.00;;;19.30;;
67640;SDS011;54434;50.096;20.082;2023-04-16T04:36:49;32.00;;;18.90;;
67640;SDS011;54434;50.096;20.082;2023-04-16T04:39:26;36.50;;;20.40;;
67640;SDS011;54434;50.096;20.082;2023-04-16T04:42:03;31.90;;;19.20;;
67640;SDS011;54434;50.096;20.082;2023-04-16T04:44:40;34.10;;;19.90;;
67640;SDS011;54434;50.096;20.082;2023-04-16T04:47:16;34.40;;;20.10;;
67640;SDS011;54434;50.096;20.082;2023-04-16T04:49:52;35.80;;;20.10;;
67640;SDS011;54434;50.096;20.082;2023-04-16T04:52:34;37.40;;;22.80;;
67640;SDS011;54434;50.096;20.082;2023-04-16T04:55:14;39.30;;;23.30;;
67640;SDS011;54434;50.096;20.082;2023-04-16T04:57:50;38.20;;;21.30;;
67640;SDS011;54434;50.096;20.082;2023-04-16T05:00:27;33.80;;;20.70;;
67640;SDS011;54434;50.096;20.082;2023-04-16T05:03:10;35.30;;;21.60;;
67640;SDS011;54434;50.096;20.082;2023-04-16T05:05:55;34.40;;;21.00;;
67640;SDS011;54434;50.096;20.082;2023-04-16T05:08:32;32.60;;;20.10;;
67640;SDS011;54434;50.096;20.082;2023-04-16T05:11:09;33.60;;;19.90;;
67640;SDS011;54434;50.096;20.082;2023-04-16T05:13:45;33.20;;;20.40;;
67640;SDS011;54434;50.096;20.082;2023-04-16T05:16:22;31.30;;;19.40;;
67640;SDS011;54434;50.096;20.082;2023-04-16T05:18:58;27.70;;;18.00;;
67640;SDS011;54434;50.096;20.082;2023-04-16T05:21:35;29.40;;;18.10;;
67640;SDS011;54434;50.096;20.082;2023-04-16T05:24:12;27.30;;;17.30;;
67640;SDS011;54434;50.096;20.082;2023-04-16T05:26:49;26.30;;;17.10;;
67640;SDS011;54434;50.096;20.082;2023-04-16T05:29:25;27.00;;;16.20;;
67640;SDS011;54434;50.096;20.082;2023-04-16T05:32:02;24.80;;;15.60;;
67640;SDS011;54434;50.096;20.082;2023-04-16T05:34:39;24.50;;;16.50;;
67640;SDS011;54434;50.096;20.082;2023-04-16T05:37:15;23.50;;;15.90;;
67640;SDS011;54434;50.096;20.082;2023-04-16T05:39:51;20.90;;;14.40;;
67640;SDS011;54434;50.096;20.082;2023-04-16T05:42:28;24.10;;;15.30;;
67640;SDS011;54434;50.096;20.082;2023-04-16T05:45:08;22.20;;;15.10;;
67640;SDS011;54434;50.096;20.082;2023-04-16T05:47:46;24.10;;;14.50;;
67640;SDS011;54434;50.096;20.082;2023-04-16T05:50:22;21.40;;;14.30;;
67640;SDS011;54434;50.096;20.082;2023-04-16T05:52:58;22.10;;;14.90;;
67640;SDS011;54434;50.096;20.082;2023-04-16T05:55:35;24.20;;;15.60;;
67640;SDS011;54434;50.096;20.082;2023-04-16T05:58:12;21.10;;;15.20;;
67640;SDS011;54434;50.096;20.082;2023-04-16T06:00:48;21.50;;;15.10;;
67640;SDS011;54434;50.096;20.082;2023-04-16T06:03:25;20.90;;;14.50;;
67640;SDS011;54434;50.096;20.082;2023-04-16T06:06:01;21.50;;;13.80;;
67640;SDS011;54434;50.096;20.082;2023-04-16T06:08:38;23.50;;;16.20;;
67640;SDS011;54434;50.096;20.082;2023-04-16T06:11:14;23.30;;;16.00;;
67640;SDS011;54434;50.096;20.082;2023-04-16T06:13:55;19.90;;;13.90;;
67640;SDS011;54434;50.096;20.082;2023-04-16T06:16:32;20.90;;;13.80;;
67640;SDS011;54434;50.096;20.082;2023-04-16T06:19:08;20.80;;;14.20;;
67640;SDS011;54434;50.096;20.082;2023-04-16T06:21:45;22.60;;;14.10;;
67640;SDS011;54434;50.096;20.082;2023-04-16T06:24:21;20.90;;;13.80;;
67640;SDS011;54434;50.096;20.082;2023-04-16T06:26:58;18.70;;;12.50;;
67640;SDS011;54434;50.096;20.082;2023-04-16T06:29:35;23.20;;;15.40;;
67640;SDS011;54434;50.096;20.082;2023-04-16T06:32:14;23.10;;;15.60;;
67640;SDS011;54434;50.096;20.082;2023-04-16T06:34:50;22.10;;;15.10;;
67640;SDS011;54434;50.096;20.082;2023-04-16T06:37:28;21.70;;;14.90;;
67640;SDS011;54434;50.096;20.082;2023-04-16T06:40:08;21.00;;;13.90;;
67640;SDS011;54434;50.096;20.082;2023-04-16T06:42:45;21.70;;;14.80;;
67640;SDS011;54434;50.096;20.082;2023-04-16T06:45:22;21.30;;;14.30;;
67640;SDS011;54434;50.096;20.082;2023-04-16T06:47:58;20.00;;;13.70;;
67640;SDS011;54434;50.096;20.082;2023-04-16T06:50:36;20.00;;;13.80;;
67640;SDS011;54434;50.096;20.082;2023-04-16T06:53:12;19.60;;;13.60;;
67640;SDS011;54434;50.096;20.082;2023-04-16T06:55:50;21.80;;;13.90;;
67640;SDS011;54434;50.096;20.082;2023-04-16T06:58:26;20.10;;;14.20;;
67640;SDS011;54434;50.096;20.082;2023-04-16T07:01:03;20.10;;;13.50;;
67640;SDS011;54434;50.096;20.082;2023-04-16T07:03:40;21.60;;;13.80;;
67640;SDS011;54434;50.096;20.082;2023-04-16T07:06:17;21.20;;;13.80;;
67640;SDS011;54434;50.096;20.082;2023-04-16T07:08:53;21.00;;;13.50;;
67640;SDS011;54434;50.096;20.082;2023-04-16T07:11:32;21.60;;;13.70;;
67640;SDS011;54434;50.096;20.082;2023-04-16T07:14:09;20.00;;;13.30;;
67640;SDS011;54434;50.096;20.082;2023-04-16T07:16:45;23.30;;;14.10;;
67640;SDS011;54434;50.096;20.082;2023-04-16T07:19:22;20.70;;;14.40;;
67640;SDS011;54434;50.096;20.082;2023-04-16T07:22:03;18.90;;;13.10;;
67640;SDS011;54434;50.096;20.082;2023-04-16T07:24:39;20.00;;;13.40;;
67640;SDS011;54434;50.096;20.082;2023-04-16T07:27:16;26.40;;;17.10;;
67640;SDS011;54434;50.096;20.082;2023-04-16T07:29:52;25.10;;;17.70;;
67640;SDS011;54434;50.096;20.082;2023-04-16T07:32:29;24.80;;;16.60;;
67640;SDS011;54434;50.096;20.082;2023-04-16T07:35:07;26.10;;;17.50;;
67640;SDS011;54434;50.096;20.082;2023-04-16T07:37:44;29.80;;;17.10;;
67640;SDS011;54434;50.096;20.082;2023-04-16T07:40:21;24.10;;;15.90;;
67640;SDS011;54434;50.096;20.082;2023-04-16T07:42:58;26.40;;;15.50;;
67640;SDS011;54434;50.096;20.082;2023-04-16T07:45:35;26.20;;;16.20;;
67640;SDS011;54434;50.096;20.082;2023-04-16T07:48:13;25.30;;;15.40;;
67640;SDS011;54434;50.096;20.082;2023-04-16T07:50:50;23.40;;;16.40;;
67640;SDS011;54434;50.096;20.082;2023-04-16T07:53:26;26.90;;;17.80;;
67640;SDS011;54434;50.096;20.082;2023-04-16T07:56:03;29.30;;;19.90;;
67640;SDS011;54434;50.096;20.082;2023-04-16T07:58:40;63.10;;;37.40;;
67640;SDS011;54434;50.096;20.082;2023-04-16T08:01:17;27.30;;;17.00;;
67640;SDS011;54434;50.096;20.082;2023-04-16T08:03:54;30.20;;;18.10;;
67640;SDS011;54434;50.096;20.082;2023-04-16T08:06:31;25.80;;;16.30;;
67640;SDS011;54434;50.096;20.082;2023-04-16T08:09:07;26.10;;;16.40;;
67640;SDS011;54434;50.096;20.082;2023-04-16T08:11:44;19.20;;;11.70;;
67640;SDS011;54434;50.096;20.082;2023-04-16T08:14:22;22.70;;;14.00;;
67640;SDS011;54434;50.096;20.082;2023-04-16T08:16:58;19.40;;;13.20;;
67640;SDS011;54434;50.096;20.082;2023-04-16T08:19:35;21.00;;;12.60;;
67640;SDS011;54434;50.096;20.082;2023-04-16T08:22:13;23.20;;;14.80;;
67640;SDS011;54434;50.096;20.082;2023-04-16T08:24:50;24.40;;;14.80;;
67640;SDS011;54434;50.096;20.082;2023-04-16T08:27:27;21.20;;;12.90;;
67640;SDS011;54434;50.096;20.082;2023-04-16T08:30:04;18.00;;;11.60;;
67640;SDS011;54434;50.096;20.082;2023-04-16T08:32:41;17.90;;;10.90;;
67640;SDS011;54434;50.096;20.082;2023-04-16T08:35:24;20.50;;;11.90;;
67640;SDS011;54434;50.096;20.082;2023-04-16T08:38:01;15.70;;;9.80;;
67640;SDS011;54434;50.096;20.082;2023-04-16T08:40:40;18.30;;;11.80;;
67640;SDS011;54434;50.096;20.082;2023-04-16T08:43:18;21.00;;;13.30;;
67640;SDS011;54434;50.096;20.082;2023-04-16T08:45:57;15.70;;;10.00;;
67640;SDS011;54434;50.096;20.082;2023-04-16T08:48:35;13.90;;;8.40;;
67640;SDS011;54434;50.096;20.082;2023-04-16T08:51:14;15.80;;;9.30;;
67640;SDS011;54434;50.096;20.082;2023-04-16T08:53:57;14.90;;;9.30;;
67640;SDS011;54434;50.096;20.082;2023-04-16T08:56:39;15.90;;;9.10;;
67640;SDS011;54434;50.096;20.082;2023-04-16T08:59:17;14.20;;;8.20;;
67640;SDS011;54434;50.096;20.082;2023-04-16T09:01:56;11.60;;;7.00;;
67640;SDS011;54434;50.096;20.082;2023-04-16T09:04:34;13.30;;;7.50;;
67640;SDS011;54434;50.096;20.082;2023-04-16T09:07:12;13.00;;;7.40;;
67640;SDS011;54434;50.096;20.082;2023-04-16T09:09:52;10.10;;;5.60;;
67640;SDS011;54434;50.096;20.082;2023-04-16T09:12:30;10.60;;;5.70;;
67640;SDS011;54434;50.096;20.082;2023-04-16T09:15:10;8.80;;;4.90;;
67640;SDS011;54434;50.096;20.082;2023-04-16T09:17:47;11.60;;;6.40;;
67640;SDS011;54434;50.096;20.082;2023-04-16T09:20:24;10.80;;;6.60;;
67640;SDS011;54434;50.096;20.082;2023-04-16T09:23:00;11.40;;;6.70;;
67640;SDS011;54434;50.096;20.082;2023-04-16T09:25:38;13.00;;;7.40;;
67640;SDS011;54434;50.096;20.082;2023-04-16T09:28:42;11.70;;;6.70;;
67640;SDS011;54434;50.096;20.082;2023-04-16T09:31:20;11.00;;;6.50;;
67640;SDS011;54434;50.096;20.082;2023-04-16T09:34:08;9.20;;;5.50;;
67640;SDS011;54434;50.096;20.082;2023-04-16T09:36:44;8.20;;;4.00;;
67640;SDS011;54434;50.096;20.082;2023-04-16T09:39:23;7.50;;;4.60;;
67640;SDS011;54434;50.096;20.082;2023-04-16T09:42:00;8.50;;;4.10;;
67640;SDS011;54434;50.096;20.082;2023-04-16T09:44:40;11.40;;;4.50;;
67640;SDS011;54434;50.096;20.082;2023-04-16T09:47:18;7.40;;;3.80;;
67640;SDS011;54434;50.096;20.082;2023-04-16T09:49:59;9.60;;;5.40;;
67640;SDS011;54434;50.096;20.082;2023-04-16T09:52:37;7.00;;;4.10;;
67640;SDS011;54434;50.096;20.082;2023-04-16T09:55:16;5.70;;;3.40;;
67640;SDS011;54434;50.096;20.082;2023-04-16T09:58:03;5.10;;;2.90;;
67640;SDS011;54434;50.096;20.082;2023-04-16T10:00:41;5.70;;;3.50;;
67640;SDS011;54434;50.096;20.082;2023-04-16T10:03:17;5.90;;;3.40;;
67640;SDS011;54434;50.096;20.082;2023-04-16T10:06:08;5.50;;;3.20;;
67640;SDS011;54434;50.096;20.082;2023-04-16T10:08:52;7.00;;;4.00;;
67640;SDS011;54434;50.096;20.082;2023-04-16T10:11:30;7.20;;;3.60;;
67640;SDS011;54434;50.096;20.082;2023-04-16T10:14:06;6.70;;;3.80;;
67640;SDS011;54434;50.096;20.082;2023-04-16T10:16:43;7.20;;;3.80;;
67640;SDS011;54434;50.096;20.082;2023-04-16T10:19:21;7.20;;;3.70;;
67640;SDS011;54434;50.096;20.082;2023-04-16T10:21:58;63.00;;;31.30;;
67640;SDS011;54434;50.096;20.082;2023-04-16T10:24:35;8.50;;;4.70;;
67640;SDS011;54434;50.096;20.082;2023-04-16T10:27:19;7.80;;;4.40;;
67640;SDS011;54434;50.096;20.082;2023-04-16T10:29:56;9.20;;;4.60;;
67640;SDS011;54434;50.096;20.082;2023-04-16T10:32:34;14.50;;;8.40;;
67640;SDS011;54434;50.096;20.082;2023-04-16T10:35:17;8.60;;;4.70;;
67640;SDS011;54434;50.096;20.082;2023-04-16T10:37:58;7.50;;;4.00;;
67640;SDS011;54434;50.096;20.082;2023-04-16T10:41:03;6.90;;;4.00;;
67640;SDS011;54434;50.096;20.082;2023-04-16T10:43:45;7.40;;;4.30;;
67640;SDS011;54434;50.096;20.082;2023-04-16T10:46:25;7.30;;;4.20;;
67640;SDS011;54434;50.096;20.082;2023-04-16T10:49:16;6.80;;;3.80;;
67640;SDS011;54434;50.096;20.082;2023-04-16T10:52:11;6.70;;;3.70;;
67640;SDS011;54434;50.096;20.082;2023-04-16T10:54:50;6.50;;;3.90;;
67640;SDS011;54434;50.096;20.082;2023-04-16T10:57:33;8.20;;;4.00;;
67640;SDS011;54434;50.096;20.082;2023-04-16T11:00:23;7.40;;;4.00;;
67640;SDS011;54434;50.096;20.082;2023-04-16T11:05:48;6.10;;;3.60;;
67640;SDS011;54434;50.096;20.082;2023-04-16T11:08:24;6.60;;;3.50;;
67640;SDS011;54434;50.096;20.082;2023-04-16T11:11:01;8.30;;;3.50;;
67640;SDS011;54434;50.096;20.082;2023-04-16T11:13:43;6.30;;;3.40;;
67640;SDS011;54434;50.096;20.082;2023-04-16T11:16:19;7.00;;;3.50;;
67640;SDS011;54434;50.096;20.082;2023-04-16T11:18:58;7.60;;;3.80;;
67640;SDS011;54434;50.096;20.082;2023-04-16T11:21:34;7.80;;;4.00;;
67640;SDS011;54434;50.096;20.082;2023-04-16T11:24:12;8.70;;;4.20;;
67640;SDS011;54434;50.096;20.082;2023-04-16T11:26:51;7.00;;;4.20;;
67640;SDS011;54434;50.096;20.082;2023-04-16T11:29:27;7.70;;;4.40;;
67640;SDS011;54434;50.096;20.082;2023-04-16T11:32:05;7.60;;;4.30;;
67640;SDS011;54434;50.096;20.082;2023-04-16T11:34:59;7.70;;;4.10;;
67640;SDS011;54434;50.096;20.082;2023-04-16T11:37:39;6.90;;;4.00;;
67640;SDS011;54434;50.096;20.082;2023-04-16T11:40:16;7.50;;;3.90;;
67640;SDS011;54434;50.096;20.082;2023-04-16T11:42:53;8.20;;;4.50;;
67640;SDS011;54434;50.096;20.082;2023-04-16T11:45:31;8.90;;;4.60;;
67640;SDS011;54434;50.096;20.082;2023-04-16T11:48:09;8.20;;;4.30;;
67640;SDS011;54434;50.096;20.082;2023-04-16T11:50:56;7.30;;;4.10;;
67640;SDS011;54434;50.096;20.082;2023-04-16T11:53:32;9.00;;;4.10;;
67640;SDS011;54434;50.096;20.082;2023-04-16T11:56:10;9.10;;;3.90;;
67640;SDS011;54434;50.096;20.082;2023-04-16T11:59:06;7.80;;;4.40;;
67640;SDS011;54434;50.096;20.082;2023-04-16T12:01:46;8.40;;;4.30;;
67640;SDS011;54434;50.096;20.082;2023-04-16T12:04:25;6.50;;;3.40;;
67640;SDS011;54434;50.096;20.082;2023-04-16T12:07:10;6.30;;;3.60;;
67640;SDS011;54434;50.096;20.082;2023-04-16T12:09:47;6.10;;;3.40;;
67640;SDS011;54434;50.096;20.082;2023-04-16T12:12:31;5.20;;;3.00;;
67640;SDS011;54434;50.096;20.082;2023-04-16T12:15:09;10.10;;;3.30;;
67640;SDS011;54434;50.096;20.082;2023-04-16T12:17:46;7.30;;;3.20;;
67640;SDS011;54434;50.096;20.082;2023-04-16T12:20:23;5.90;;;3.10;;
67640;SDS011;54434;50.096;20.082;2023-04-16T12:23:00;6.50;;;3.20;;
67640;SDS011;54434;50.096;20.082;2023-04-16T12:25:36;7.40;;;3.30;;
67640;SDS011;54434;50.096;20.082;2023-04-16T12:28:27;4.80;;;2.80;;
67640;SDS011;54434;50.096;20.082;2023-04-16T12:31:05;6.70;;;3.00;;
67640;SDS011;54434;50.096;20.082;2023-04-16T12:33:43;5.80;;;2.90;;
67640;SDS011;54434;50.096;20.082;2023-04-16T12:36:34;6.10;;;3.20;;
67640;SDS011;54434;50.096;20.082;2023-04-16T12:39:12;5.20;;;2.80;;
67640;SDS011;54434;50.096;20.082;2023-04-16T12:41:49;8.20;;;3.30;;
67640;SDS011;54434;50.096;20.082;2023-04-16T12:44:26;6.10;;;3.20;;
67640;SDS011;54434;50.096;20.082;2023-04-16T12:47:03;4.80;;;3.00;;
67640;SDS011;54434;50.096;20.082;2023-04-16T12:49:40;6.40;;;3.00;;
67640;SDS011;54434;50.096;20.082;2023-04-16T12:52:18;7.20;;;2.90;;
67640;SDS011;54434;50.096;20.082;2023-04-16T12:54:59;6.20;;;3.10;;
67640;SDS011;54434;50.096;20.082;2023-04-16T12:57:36;4.50;;;2.90;;
67640;SDS011;54434;50.096;20.082;2023-04-16T13:00:15;5.40;;;3.00;;
67640;SDS011;54434;50.096;20.082;2023-04-16T13:02:52;5.10;;;2.80;;
67640;SDS011;54434;50.096;20.082;2023-04-16T13:05:29;6.20;;;3.50;;
67640;SDS011;54434;50.096;20.082;2023-04-16T13:08:07;6.20;;;3.30;;
67640;SDS011;54434;50.096;20.082;2023-04-16T13:10:43;6.50;;;3.50;;
67640;SDS011;54434;50.096;20.082;2023-04-16T13:13:19;7.00;;;3.20;;
67640;SDS011;54434;50.096;20.082;2023-04-16T13:15:58;7.70;;;4.10;;
67640;SDS011;54434;50.096;20.082;2023-04-16T13:18:38;6.20;;;3.10;;
67640;SDS011;54434;50.096;20.082;2023-04-16T13:21:15;5.70;;;3.20;;
67640;SDS011;54434;50.096;20.082;2023-04-16T13:23:53;6.40;;;3.30;;
67640;SDS011;54434;50.096;20.082;2023-04-16T13:26:29;6.00;;;2.90;;
67640;SDS011;54434;50.096;20.082;2023-04-16T13:29:05;5.30;;;2.80;;
67640;SDS011;54434;50.096;20.082;2023-04-16T13:31:42;5.00;;;2.80;;
67640;SDS011;54434;50.096;20.082;2023-04-16T13:34:20;4.50;;;2.50;;
67640;SDS011;54434;50.096;20.082;2023-04-16T13:36:56;5.00;;;3.00;;
67640;SDS011;54434;50.096;20.082;2023-04-16T13:39:33;5.00;;;2.90;;
67640;SDS011;54434;50.096;20.082;2023-04-16T13:42:10;5.40;;;2.90;;
67640;SDS011;54434;50.096;20.082;2023-04-16T13:44:46;6.00;;;3.00;;
67640;SDS011;54434;50.096;20.082;2023-04-16T17:18:27;23.30;;;11.90;;
67640;SDS011;54434;50.096;20.082;2023-04-16T17:21:09;15.50;;;9.00;;
67640;SDS011;54434;50.096;20.082;2023-04-16T17:23:48;15.60;;;9.40;;
67640;SDS011;54434;50.096;20.082;2023-04-16T17:26:25;15.80;;;9.50;;
67640;SDS011;54434;50.096;20.082;2023-04-16T17:29:01;16.60;;;9.90;;
67640;SDS011;54434;50.096;20.082;2023-04-16T17:31:38;17.90;;;10.30;;
67640;SDS011;54434;50.096;20.082;2023-04-16T17:34:15;17.60;;;11.10;;
67640;SDS011;54434;50.096;20.082;2023-04-16T17:36:51;18.60;;;11.30;;
67640;SDS011;54434;50.096;20.082;2023-04-16T17:39:28;19.70;;;12.10;;
67640;SDS011;54434;50.096;20.082;2023-04-16T17:42:05;20.00;;;12.00;;
67640;SDS011;54434;50.096;20.082;2023-04-16T17:44:41;19.00;;;11.40;;
67640;SDS011;54434;50.096;20.082;2023-04-16T17:47:18;20.00;;;11.50;;
67640;SDS011;54434;50.096;20.082;2023-04-16T17:49:56;19.60;;;11.10;;
67640;SDS011;54434;50.096;20.082;2023-04-16T17:52:32;17.70;;;11.50;;
67640;SDS011;54434;50.096;20.082;2023-04-16T17:55:11;17.90;;;10.90;;
67640;SDS011;54434;50.096;20.082;2023-04-16T17:57:47;16.90;;;10.30;;
67640;SDS011;54434;50.096;20.082;2023-04-16T18:00:24;16.70;;;10.20;;
67640;SDS011;54434;50.096;20.082;2023-04-16T18:03:00;18.10;;;10.60;;
67640;SDS011;54434;50.096;20.082;2023-04-16T18:05:37;17.10;;;10.50;;
67640;SDS011;54434;50.096;20.082;2023-04-16T18:08:15;19.80;;;10.60;;
67640;SDS011;54434;50.096;20.082;2023-04-16T18:10:51;17.30;;;10.70;;
67640;SDS011;54434;50.096;20.082;2023-04-16T18:13:29;17.00;;;10.80;;
67640;SDS011;54434;50.096;20.082;2023-04-16T18:16:08;18.00;;;10.60;;
67640;SDS011;54434;50.096;20.082;2023-04-16T18:18:49;17.50;;;10.50;;
67640;SDS011;54434;50.096;20.082;2023-04-16T18:21:26;17.70;;;10.60;;
67640;SDS011;54434;50.096;20.082;2023-04-16T18:24:07;20.80;;;10.80;;
67640;SDS011;54434;50.096;20.082;2023-04-16T18:26:44;19.80;;;11.00;;
67640;SDS011;54434;50.096;20.082;2023-04-16T18:29:20;19.80;;;11.90;;
67640;SDS011;54434;50.096;20.082;2023-04-16T18:31:57;25.30;;;16.50;;
67640;SDS011;54434;50.096;20.082;2023-04-16T18:34:37;19.40;;;12.00;;
67640;SDS011;54434;50.096;20.082;2023-04-16T18:37:14;19.70;;;10.60;;
67640;SDS011;54434;50.096;20.082;2023-04-16T18:39:51;17.40;;;11.00;;
67640;SDS011;54434;50.096;20.082;2023-04-16T18:42:30;19.40;;;10.60;;
67640;SDS011;54434;50.096;20.082;2023-04-16T18:45:09;18.90;;;11.40;;
67640;SDS011;54434;50.096;20.082;2023-04-16T18:47:53;17.70;;;11.30;;
67640;SDS011;54434;50.096;20.082;2023-04-16T18:50:33;20.60;;;10.70;;
67640;SDS011;54434;50.096;20.082;2023-04-16T18:53:10;17.80;;;10.60;;